createdAt,value
2022-12-18T00:13:10.332Z,99483.75
2022-12-18T00:33:13.195Z,99484.41
2022-12-18T00:53:16.464Z,99507.06
2022-12-18T01:13:19.065Z,99523.19
2022-12-18T01:33:21.777Z,99560.47
2022-12-18T01:53:24.477Z,99568.25
2022-12-18T02:13:27.165Z,99577.31
2022-12-18T02:33:29.933Z,99591.91
2022-12-18T02:53:32.546Z,99638.47
2022-12-18T03:13:35.039Z,99646.09
2022-12-18T03:33:38.109Z,99684.06
2022-12-18T03:53:41.360Z,99690.19
2022-12-18T04:13:44.342Z,99699.47
2022-12-18T04:33:47.103Z,99730.06
2022-12-18T04:53:49.751Z,99747.94
2022-12-18T05:13:52.215Z,99779.53
2022-12-18T05:33:54.930Z,99796.72
2022-12-18T05:53:57.406Z,99816.06
2022-12-18T06:14:00.170Z,99824.66
2022-12-18T06:34:03.434Z,99837.41
2022-12-18T06:54:06.452Z,99859.50
2022-12-18T07:14:09.752Z,99892.66
2022-12-18T07:34:12.854Z,99913.78
2022-12-18T07:54:15.383Z,99954.47
2022-12-18T08:14:17.940Z,99967.41
2022-12-18T08:34:20.610Z,99972.34
2022-12-18T08:54:24.105Z,99973.91
2022-12-18T09:14:26.576Z,100008.88
2022-12-18T09:34:29.029Z,100025.81
2022-12-18T09:54:31.696Z,100036.44
2022-12-18T10:14:34.308Z,100041.94
2022-12-18T10:34:36.940Z,100043.81
2022-12-18T10:54:39.422Z,100022.94
2022-12-18T11:14:46.718Z,100004.72
2022-12-18T11:34:52.496Z,99980.25
2022-12-18T11:54:58.531Z,99987.53
2022-12-18T12:15:00.988Z,99995.78
2022-12-18T12:35:09.281Z,100016.09
2022-12-18T12:55:14.832Z,100022.28
2022-12-18T13:15:17.662Z,100030.19
2022-12-18T13:35:20.370Z,100039.78
2022-12-18T13:55:25.561Z,100055.50
2022-12-18T14:15:28.657Z,100066.44
2022-12-18T14:35:31.426Z,100069.22
2022-12-18T14:55:34.541Z,100082.75
2022-12-18T15:15:41.551Z,100086.34
2022-12-18T15:35:47.335Z,100105.53
2022-12-18T15:56:08.533Z,100112.75
2022-12-18T16:16:12.132Z,100131.56
2022-12-18T16:36:14.942Z,100134.63
2022-12-18T16:56:17.581Z,100151.47
2022-12-18T17:16:20.044Z,100138.94
2022-12-18T17:36:22.734Z,100112.09
2022-12-18T17:56:25.767Z,100090.31
2022-12-18T18:16:28.499Z,100120.06
2022-12-18T18:36:31.007Z,100133.06
2022-12-18T19:16:56.234Z,100152.59
2022-12-18T19:37:00.104Z,100177.50
2022-12-18T19:57:04.290Z,100174.81
2022-12-18T20:17:07.877Z,100181.38
2022-12-18T20:37:12.361Z,100151.91
2022-12-18T20:57:18.090Z,100155.50
2022-12-18T21:17:20.600Z,100114.91
2022-12-18T21:37:23.189Z,100096.47
2022-12-18T21:57:25.836Z,100109.97
2022-12-18T22:17:28.546Z,100121.63
2022-12-18T22:37:32.170Z,100125.91
2022-12-18T22:57:34.840Z,100113.97
2022-12-18T23:17:38.816Z,100107.03
2022-12-18T23:37:59.441Z,100105.44
2022-12-18T23:58:02.309Z,100096.03
